createdAt,value
2023-05-05T00:00:00.748Z,6.03
2023-05-05T00:02:27.465Z,6.43
2023-05-05T00:04:54.042Z,6.43
2023-05-05T00:07:20.517Z,6.20
2023-05-05T00:09:46.969Z,6.53
2023-05-05T00:12:13.485Z,6.20
2023-05-05T00:14:39.922Z,5.95
2023-05-05T00:17:06.597Z,5.95
2023-05-05T00:19:33.223Z,6.80
2023-05-05T00:21:59.696Z,6.20
2023-05-05T00:24:26.156Z,6.65
2023-05-05T00:26:52.635Z,6.10
2023-05-05T00:29:19.085Z,6.43
2023-05-05T00:31:46.006Z,6.53
2023-05-05T00:34:12.513Z,6.38
2023-05-05T00:36:39.010Z,6.13
2023-05-05T00:39:05.604Z,6.97
2023-05-05T00:41:32.065Z,6.20
2023-05-05T00:43:58.556Z,6.93
2023-05-05T00:46:29.546Z,6.55
2023-05-05T00:48:56.545Z,6.47
2023-05-05T00:51:24.501Z,6.72
2023-05-05T00:53:51.249Z,6.50
2023-05-05T00:56:19.742Z,6.93
2023-05-05T00:58:46.773Z,6.57
2023-05-05T01:01:13.950Z,6.63
2023-05-05T01:03:44.001Z,6.90
2023-05-05T01:06:25.486Z,7.07
2023-05-05T01:09:13.687Z,7.05
2023-05-05T01:11:52.538Z,6.82
2023-05-05T01:14:28.528Z,6.97
2023-05-05T01:16:58.824Z,7.38
2023-05-05T01:19:34.316Z,7.45
2023-05-05T01:22:02.740Z,7.15
2023-05-05T01:25:04.263Z,7.40
2023-05-05T01:28:01.929Z,7.45
2023-05-05T01:30:31.737Z,7.13
2023-05-05T01:33:02.332Z,7.10
2023-05-05T01:35:36.586Z,7.80
2023-05-05T01:38:06.731Z,7.32
2023-05-05T01:40:38.246Z,7.28
2023-05-05T01:43:06.324Z,7.22
2023-05-05T01:45:35.763Z,7.18
2023-05-05T01:48:03.034Z,7.65
2023-05-05T01:50:29.703Z,7.35
2023-05-05T01:52:57.773Z,7.40
2023-05-05T01:55:28.086Z,7.78
2023-05-05T01:57:55.961Z,7.93
2023-05-05T02:00:25.078Z,6.85
2023-05-05T02:02:52.091Z,7.88
2023-05-05T02:05:21.932Z,7.50
2023-05-05T02:07:50.575Z,7.78
2023-05-05T02:10:17.231Z,7.05
2023-05-05T02:12:45.304Z,8.20
2023-05-05T02:15:12.254Z,7.82
2023-05-05T02:17:42.442Z,8.35
2023-05-05T02:20:11.327Z,8.00
2023-05-05T02:22:38.101Z,8.85
2023-05-05T02:25:04.975Z,7.53
2023-05-05T02:27:33.984Z,8.38
2023-05-05T02:30:04.644Z,7.53
2023-05-05T02:32:37.796Z,8.07
2023-05-05T02:35:18.715Z,8.50
2023-05-05T02:38:00.006Z,8.45
2023-05-05T02:40:33.334Z,8.93
2023-05-05T02:43:05.187Z,8.65
2023-05-05T02:45:32.518Z,8.27
2023-05-05T02:48:06.742Z,8.95
2023-05-05T02:50:37.680Z,8.77
2023-05-05T02:53:24.259Z,9.10
2023-05-05T02:55:57.526Z,8.52
2023-05-05T02:58:34.437Z,8.80
2023-05-05T03:01:26.744Z,6.50
2023-05-05T03:04:06.373Z,9.10
2023-05-05T03:06:42.787Z,9.02
2023-05-05T03:09:33.893Z,9.57
2023-05-05T03:12:05.836Z,7.55
2023-05-05T03:14:43.039Z,9.43
2023-05-05T03:17:13.429Z,8.05
2023-05-05T03:19:42.176Z,9.73
2023-05-05T03:22:08.985Z,9.35
2023-05-05T03:24:37.111Z,9.15
2023-05-05T03:27:07.589Z,8.80
2023-05-05T03:29:37.446Z,8.48
2023-05-05T03:32:08.234Z,8.23
2023-05-05T03:34:37.292Z,8.98
2023-05-05T03:37:04.912Z,9.65
2023-05-05T03:39:31.902Z,9.50
2023-05-05T03:41:58.855Z,10.32
2023-05-05T03:44:29.254Z,8.93
2023-05-05T03:46:56.575Z,9.70
2023-05-05T03:49:23.050Z,9.50
2023-05-05T03:51:50.046Z,10.32
2023-05-05T03:54:17.459Z,8.27
2023-05-05T03:56:44.008Z,9.77
2023-05-05T03:59:11.279Z,9.77
2023-05-05T04:01:37.804Z,10.02
2023-05-05T04:04:04.932Z,8.77
2023-05-05T04:06:32.081Z,9.98
2023-05-05T04:08:58.727Z,9.95
2023-05-05T04:11:26.243Z,9.55
2023-05-05T04:13:54.263Z,10.40
2023-05-05T04:16:21.696Z,9.07
2023-05-05T04:18:48.883Z,9.35
2023-05-05T04:21:15.585Z,9.50
2023-05-05T04:23:42.663Z,9.43
2023-05-05T04:26:09.138Z,9.40
2023-05-05T04:28:35.710Z,9.68
2023-05-05T04:31:04.931Z,9.20
2023-05-05T04:33:34.223Z,8.25
2023-05-05T04:36:00.862Z,7.72
2023-05-05T04:38:28.265Z,7.32
2023-05-05T04:40:55.462Z,8.43
2023-05-05T04:43:22.154Z,9.05
2023-05-05T04:45:53.485Z,8.27
2023-05-05T04:48:21.777Z,8.20
2023-05-05T04:50:48.308Z,8.25
2023-05-05T04:53:14.810Z,8.63
2023-05-05T04:55:41.382Z,7.97
2023-05-05T04:58:07.877Z,8.55
2023-05-05T05:00:36.089Z,8.50
2023-05-05T05:03:03.091Z,7.75
2023-05-05T05:05:29.618Z,8.23
2023-05-05T05:07:56.144Z,8.15
2023-05-05T05:10:23.235Z,9.40
2023-05-05T05:12:49.769Z,8.43
2023-05-05T05:15:16.300Z,7.93
2023-05-05T05:17:42.963Z,7.93
2023-05-05T05:20:10.099Z,8.63
2023-05-05T05:22:38.767Z,8.50
2023-05-05T05:25:09.114Z,8.55
2023-05-05T05:27:36.436Z,8.38
2023-05-05T05:30:03.232Z,8.65
2023-05-05T05:32:31.510Z,8.88
2023-05-05T05:34:58.174Z,8.45
2023-05-05T05:37:28.603Z,8.30
2023-05-05T05:39:55.307Z,9.02
2023-05-05T05:42:23.342Z,9.05
2023-05-05T05:44:49.965Z,9.05
2023-05-05T05:47:16.445Z,8.32
2023-05-05T05:49:43.111Z,8.63
2023-05-05T05:52:09.671Z,8.27
2023-05-05T05:54:36.533Z,8.70
2023-05-05T05:57:04.285Z,7.85
2023-05-05T05:59:31.009Z,8.02
2023-05-05T06:01:57.620Z,6.85
2023-05-05T06:04:24.607Z,7.78
2023-05-05T06:06:51.581Z,8.00
2023-05-05T06:09:18.314Z,8.50
2023-05-05T06:11:44.975Z,8.30
2023-05-05T06:14:11.516Z,8.05
2023-05-05T06:16:38.178Z,7.93
2023-05-05T06:19:10.646Z,9.23
2023-05-05T06:21:37.725Z,7.90
2023-05-05T06:24:04.766Z,8.48
2023-05-05T06:26:32.371Z,8.77
2023-05-05T06:28:58.845Z,7.95
2023-05-05T06:31:25.676Z,8.13
2023-05-05T06:33:52.150Z,7.70
2023-05-05T06:36:18.654Z,7.88
2023-05-05T06:38:45.161Z,8.00
2023-05-05T06:41:11.611Z,8.48
2023-05-05T06:43:38.143Z,7.38
2023-05-05T06:46:09.561Z,8.25
2023-05-05T06:48:36.306Z,8.02
2023-05-05T06:51:03.957Z,8.70
2023-05-05T06:53:30.532Z,8.60
2023-05-05T06:55:56.996Z,7.65
2023-05-05T06:58:23.511Z,7.70
2023-05-05T07:00:50.032Z,7.63
2023-05-05T07:03:17.211Z,7.30
2023-05-05T07:05:43.799Z,7.53
2023-05-05T07:08:11.317Z,7.68
2023-05-05T07:10:37.916Z,7.25
2023-05-05T07:13:04.471Z,6.65
2023-05-05T07:15:31.076Z,6.82
2023-05-05T07:17:57.984Z,6.32
2023-05-05T07:20:25.184Z,6.78
2023-05-05T07:22:51.757Z,6.88
2023-05-05T07:25:18.396Z,6.55
2023-05-05T07:27:44.997Z,6.40
2023-05-05T07:30:14.240Z,6.80
2023-05-05T07:32:43.015Z,5.70
2023-05-05T07:35:09.676Z,6.90
2023-05-05T07:37:36.256Z,6.63
2023-05-05T07:40:02.747Z,6.85
2023-05-05T07:42:29.241Z,7.53
2023-05-05T07:44:55.710Z,6.90
2023-05-05T07:47:22.230Z,6.63
2023-05-05T07:49:48.701Z,6.30
2023-05-05T07:52:15.180Z,6.22
2023-05-05T07:54:42.383Z,6.35
2023-05-05T07:57:08.858Z,6.28
2023-05-05T07:59:35.525Z,6.18
2023-05-05T08:02:02.191Z,5.57
2023-05-05T08:04:28.680Z,5.53
2023-05-05T08:06:55.306Z,5.93
2023-05-05T08:09:21.779Z,5.80
2023-05-05T08:11:48.305Z,5.82
2023-05-05T08:14:15.354Z,5.43
2023-05-05T08:16:41.933Z,5.10
2023-05-05T08:19:21.095Z,5.50
2023-05-05T08:21:54.638Z,5.35
2023-05-05T08:24:21.106Z,5.50
2023-05-05T08:26:47.620Z,5.20
2023-05-05T08:29:14.076Z,5.40
2023-05-05T08:31:40.555Z,4.93
2023-05-05T08:34:07.209Z,5.45
2023-05-05T08:36:33.766Z,5.15
2023-05-05T08:39:00.687Z,5.43
2023-05-05T08:41:28.079Z,5.03
2023-05-05T08:43:54.873Z,4.80
2023-05-05T08:46:22.030Z,5.30
2023-05-05T08:48:48.719Z,4.72
2023-05-05T08:51:19.715Z,5.65
2023-05-05T08:53:52.327Z,5.70
2023-05-05T08:56:20.046Z,4.93
2023-05-05T08:58:47.206Z,5.40
2023-05-05T09:01:14.525Z,4.78
2023-05-05T09:03:41.267Z,5.18
2023-05-05T09:06:07.854Z,5.03
2023-05-05T09:08:34.329Z,4.88
2023-05-05T09:11:02.161Z,4.53
2023-05-05T09:13:30.029Z,4.85
2023-05-05T09:15:56.993Z,5.25
2023-05-05T09:18:23.496Z,5.57
2023-05-05T09:20:50.072Z,5.80
2023-05-05T09:23:18.970Z,5.13
2023-05-05T09:25:47.973Z,6.10
2023-05-05T09:28:16.330Z,5.47
2023-05-05T09:30:45.752Z,6.35
2023-05-05T09:33:12.874Z,5.35
2023-05-05T09:35:54.012Z,5.65
2023-05-05T09:38:22.551Z,5.63
2023-05-05T09:40:53.211Z,5.32
2023-05-05T09:43:21.519Z,4.97
2023-05-05T09:45:51.116Z,5.03
2023-05-05T09:48:28.374Z,5.63
2023-05-05T09:50:55.831Z,5.25
2023-05-05T09:53:22.732Z,5.00
2023-05-05T09:55:55.709Z,5.38
2023-05-05T09:58:24.047Z,4.90
2023-05-05T10:00:50.979Z,4.93
2023-05-05T10:03:17.685Z,4.97
2023-05-05T10:05:47.981Z,4.53
2023-05-05T10:08:14.450Z,4.57
2023-05-05T10:10:51.407Z,4.43
2023-05-05T10:13:20.307Z,4.25
2023-05-05T10:15:49.649Z,4.90
2023-05-05T10:18:20.134Z,4.28
2023-05-05T10:20:48.951Z,4.32
2023-05-05T10:23:19.330Z,4.03
2023-05-05T10:25:51.994Z,5.15
2023-05-05T10:28:23.834Z,4.27
2023-05-05T10:30:51.248Z,4.25
2023-05-05T10:35:53.646Z,3.38
2023-05-05T10:38:20.793Z,4.22
2023-05-05T10:40:48.798Z,3.95
2023-05-05T10:43:15.738Z,3.90
2023-05-05T10:45:42.973Z,3.83
2023-05-05T10:48:27.326Z,3.75
2023-05-05T10:50:58.998Z,4.03
2023-05-05T10:53:34.228Z,3.80
2023-05-05T10:56:11.388Z,4.18
2023-05-05T10:58:55.594Z,3.65
2023-05-05T11:01:33.438Z,3.97
2023-05-05T11:04:22.336Z,3.45
2023-05-05T11:07:13.693Z,4.15
2023-05-05T11:10:04.036Z,3.22
2023-05-05T11:12:31.642Z,3.25
2023-05-05T11:15:27.547Z,3.58
2023-05-05T11:17:56.130Z,3.30
2023-05-05T11:20:43.624Z,3.00
2023-05-05T11:23:10.113Z,3.30
2023-05-05T11:25:37.245Z,2.70
2023-05-05T11:28:08.692Z,3.17
2023-05-05T11:30:36.197Z,3.03
2023-05-05T11:33:25.783Z,3.15
2023-05-05T11:36:06.167Z,3.08
2023-05-05T11:39:02.699Z,3.55
2023-05-05T11:41:33.398Z,3.22
2023-05-05T11:44:10.070Z,3.13
2023-05-05T11:46:36.792Z,3.03
2023-05-05T11:49:03.576Z,3.17
2023-05-05T11:51:30.863Z,3.08
2023-05-05T11:53:59.047Z,3.20
2023-05-05T11:56:25.917Z,3.10
2023-05-05T11:59:09.711Z,2.92
2023-05-05T12:01:42.666Z,3.30
2023-05-05T12:04:13.133Z,2.92
2023-05-05T12:06:39.984Z,2.85
2023-05-05T12:09:07.243Z,3.00
2023-05-05T12:11:33.749Z,3.10
2023-05-05T12:14:10.351Z,2.80
2023-05-05T12:16:37.741Z,2.80
2023-05-05T12:19:08.227Z,3.10
2023-05-05T12:21:35.382Z,2.85
2023-05-05T12:24:02.125Z,2.70
2023-05-05T12:26:30.676Z,2.80
2023-05-05T12:28:58.054Z,2.60
2023-05-05T12:31:34.052Z,2.47
2023-05-05T12:34:00.674Z,2.35
2023-05-05T12:36:28.689Z,3.10
2023-05-05T12:38:56.347Z,2.55
2023-05-05T12:41:22.852Z,2.72
2023-05-05T12:43:54.690Z,2.30
2023-05-05T12:46:21.208Z,2.50
2023-05-05T12:48:59.499Z,2.83
2023-05-05T12:51:27.080Z,2.72
2023-05-05T12:54:11.104Z,2.60
2023-05-05T12:56:47.531Z,2.47
2023-05-05T12:59:23.311Z,2.47
2023-05-05T13:01:53.315Z,2.10
2023-05-05T13:04:21.517Z,2.40
2023-05-05T13:06:48.940Z,2.22
2023-05-05T13:09:30.437Z,2.20
2023-05-05T13:11:56.989Z,2.92
2023-05-05T13:14:23.724Z,2.28
2023-05-05T13:16:50.358Z,2.80
2023-05-05T13:19:16.890Z,2.67
2023-05-05T13:21:43.398Z,2.53
2023-05-05T13:24:23.544Z,2.80
2023-05-05T13:26:57.063Z,2.40
2023-05-05T13:29:27.250Z,2.28
2023-05-05T13:31:56.178Z,2.30
2023-05-05T13:34:22.662Z,2.65
2023-05-05T13:36:49.165Z,2.80
2023-05-05T13:39:15.665Z,2.55
2023-05-05T13:41:42.172Z,2.63
2023-05-05T13:44:08.707Z,2.70
2023-05-05T13:46:35.189Z,2.50
2023-05-05T13:49:01.677Z,2.38
2023-05-05T13:51:28.476Z,2.90
2023-05-05T13:53:55.133Z,2.55
2023-05-05T13:56:25.894Z,2.80
2023-05-05T13:58:52.388Z,2.58
2023-05-05T14:01:18.941Z,2.50
2023-05-05T14:03:45.525Z,2.60
2023-05-05T14:06:12.071Z,2.58
2023-05-05T14:08:38.581Z,2.35
2023-05-05T14:11:05.108Z,2.70
2023-05-05T14:13:31.615Z,2.80
2023-05-05T14:15:58.444Z,2.60
2023-05-05T14:18:28.306Z,2.60
2023-05-05T14:20:54.864Z,2.70
2023-05-05T14:23:21.356Z,2.72
2023-05-05T14:25:47.938Z,2.80
2023-05-05T14:28:14.444Z,4.10
2023-05-05T14:30:41.484Z,3.67
2023-05-05T14:33:08.042Z,3.22
2023-05-05T14:35:34.621Z,3.28
2023-05-05T14:38:01.091Z,2.80
2023-05-05T14:40:29.443Z,3.03
2023-05-05T14:42:55.973Z,4.25
2023-05-05T14:45:22.516Z,3.25
2023-05-05T14:47:49.047Z,3.00
2023-05-05T14:50:15.546Z,3.03
2023-05-05T14:52:42.113Z,3.80
2023-05-05T14:55:08.964Z,2.97
2023-05-05T14:57:35.778Z,3.38
2023-05-05T15:00:02.291Z,3.15
2023-05-05T15:02:28.829Z,3.67
2023-05-05T15:04:55.338Z,4.35
2023-05-05T15:07:22.724Z,3.63
2023-05-05T15:09:49.321Z,3.45
2023-05-05T15:12:15.963Z,3.35
2023-05-05T15:14:42.434Z,2.95
2023-05-05T15:17:08.936Z,3.15
2023-05-05T15:19:35.532Z,3.05
2023-05-05T15:22:02.026Z,2.92
2023-05-05T15:24:28.610Z,2.70
2023-05-05T15:26:55.163Z,2.75
2023-05-05T15:29:21.673Z,3.03
2023-05-05T15:31:48.208Z,2.67
2023-05-05T15:34:14.821Z,2.85
2023-05-05T15:36:41.309Z,2.50
2023-05-05T15:39:07.879Z,3.00
2023-05-05T15:41:34.635Z,3.28
2023-05-05T15:44:03.071Z,3.15
2023-05-05T15:46:31.939Z,2.70
2023-05-05T15:48:58.532Z,3.40
2023-05-05T15:51:25.088Z,3.05
2023-05-05T15:53:53.200Z,3.42
2023-05-05T15:56:19.736Z,3.10
2023-05-05T15:58:46.259Z,3.35
2023-05-05T16:01:12.754Z,3.28
2023-05-05T16:03:39.340Z,2.60
2023-05-05T16:06:06.125Z,3.30
2023-05-05T16:08:32.661Z,2.40
2023-05-05T16:10:59.141Z,3.00
2023-05-05T16:13:25.616Z,3.28
2023-05-05T16:15:52.095Z,3.10
2023-05-05T16:18:18.551Z,3.17
2023-05-05T16:20:45.181Z,3.00
2023-05-05T16:23:11.782Z,3.05
2023-05-05T16:25:38.290Z,2.85
2023-05-05T16:28:04.899Z,3.10
2023-05-05T16:30:31.507Z,4.22
2023-05-05T16:32:58.069Z,3.75
2023-05-05T16:35:24.648Z,3.35
2023-05-05T16:37:52.581Z,3.60
2023-05-05T16:40:19.090Z,2.97
2023-05-05T16:42:45.569Z,3.10
2023-05-05T16:45:12.165Z,2.90
2023-05-05T16:47:38.830Z,3.13
2023-05-05T16:50:06.103Z,2.85
2023-05-05T16:52:32.605Z,3.60
2023-05-05T16:54:59.080Z,3.33
2023-05-05T16:57:25.592Z,2.85
2023-05-05T16:59:54.898Z,3.22
2023-05-05T17:02:21.606Z,2.80
2023-05-05T17:04:48.151Z,2.70
2023-05-05T17:07:14.794Z,2.80
2023-05-05T17:09:41.227Z,3.30
2023-05-05T17:12:07.823Z,3.38
2023-05-05T17:14:34.339Z,3.67
2023-05-05T17:17:00.887Z,4.50
2023-05-05T17:19:27.343Z,5.40
2023-05-05T17:21:54.806Z,5.30
2023-05-05T17:24:21.280Z,6.22
2023-05-05T17:26:47.757Z,6.30
2023-05-05T17:29:15.179Z,6.40
2023-05-05T17:31:41.976Z,5.65
2023-05-05T17:34:08.553Z,4.85
2023-05-05T17:36:35.463Z,5.20
2023-05-05T17:39:02.002Z,5.45
2023-05-05T17:41:28.443Z,5.80
2023-05-05T17:43:55.674Z,5.72
2023-05-05T17:46:22.388Z,6.35
2023-05-05T17:48:48.952Z,5.50
2023-05-05T17:51:15.447Z,6.32
2023-05-05T17:53:41.924Z,6.20
2023-05-05T17:56:09.092Z,5.70
2023-05-05T17:58:35.801Z,6.45
2023-05-05T18:01:02.332Z,6.10
2023-05-05T18:03:29.089Z,5.88
2023-05-05T18:05:56.101Z,5.53
2023-05-05T18:08:22.614Z,5.65
2023-05-05T18:10:49.129Z,5.45
2023-05-05T18:13:15.802Z,5.88
2023-05-05T18:15:42.405Z,5.80
2023-05-05T18:18:08.907Z,5.55
2023-05-05T18:20:35.385Z,5.85
2023-05-05T18:23:01.899Z,5.88
2023-05-05T18:25:28.487Z,5.93
2023-05-05T18:27:55.027Z,5.50
2023-05-05T18:30:21.585Z,7.00
2023-05-05T18:32:48.733Z,7.30
2023-05-05T18:35:15.461Z,6.95
2023-05-05T18:37:42.260Z,6.43
2023-05-05T18:40:10.122Z,6.40
2023-05-05T18:42:36.686Z,6.85
2023-05-05T18:45:03.291Z,6.65
2023-05-05T18:47:29.839Z,6.38
2023-05-05T18:49:56.395Z,7.50
2023-05-05T18:52:22.963Z,6.90
2023-05-05T18:54:49.433Z,6.60
2023-05-05T18:57:15.954Z,6.65
2023-05-05T18:59:42.432Z,6.88
2023-05-05T19:02:08.998Z,6.70
2023-05-05T19:04:37.845Z,7.00
2023-05-05T19:07:04.891Z,7.30
2023-05-05T19:09:31.557Z,8.32
2023-05-05T19:11:58.203Z,7.90
2023-05-05T19:14:24.749Z,8.05
2023-05-05T19:16:51.367Z,7.20
2023-05-05T19:19:18.172Z,6.78
2023-05-05T19:21:44.721Z,6.78
2023-05-05T19:24:11.612Z,5.90
2023-05-05T19:26:38.147Z,6.10
2023-05-05T19:29:04.631Z,5.60
2023-05-05T19:31:31.531Z,6.05
2023-05-05T19:34:00.574Z,6.15
2023-05-05T19:36:27.734Z,5.57
2023-05-05T19:38:55.441Z,6.68
2023-05-05T19:41:21.901Z,6.47
2023-05-05T19:43:49.795Z,5.90
2023-05-05T19:46:17.049Z,6.40
2023-05-05T19:48:44.036Z,5.97
2023-05-05T19:51:10.514Z,6.82
2023-05-05T19:53:36.998Z,6.47
2023-05-05T19:56:04.761Z,7.00
2023-05-05T19:58:33.789Z,6.55
2023-05-05T20:01:00.303Z,7.40
2023-05-05T20:03:26.862Z,7.25
2023-05-05T20:05:53.394Z,7.80
2023-05-05T20:08:19.849Z,8.13
2023-05-05T20:10:46.441Z,7.65
2023-05-05T20:13:12.965Z,8.02
2023-05-05T20:15:39.626Z,7.25
2023-05-05T20:18:06.112Z,7.10
2023-05-05T20:20:32.684Z,6.75
2023-05-05T20:22:59.193Z,7.63
2023-05-05T20:25:25.910Z,8.13
2023-05-05T20:27:52.403Z,7.43
2023-05-05T20:30:18.893Z,7.80
2023-05-05T20:32:45.583Z,8.07
2023-05-05T20:35:12.838Z,8.35
2023-05-05T20:37:39.416Z,7.93
2023-05-05T20:40:07.204Z,8.13
2023-05-05T20:42:33.883Z,8.88
2023-05-05T20:45:01.713Z,7.80
2023-05-05T20:47:28.389Z,9.27
2023-05-05T20:49:54.896Z,8.38
2023-05-05T20:52:21.391Z,8.35
2023-05-05T20:54:47.880Z,8.52
2023-05-05T20:57:14.342Z,7.43
2023-05-05T20:59:40.840Z,8.38
2023-05-05T21:02:07.428Z,7.68
2023-05-05T21:04:33.952Z,7.45
2023-05-05T21:07:00.563Z,7.78
2023-05-05T21:09:27.101Z,7.72
2023-05-05T21:11:53.584Z,7.70
2023-05-05T21:14:20.059Z,7.90
2023-05-05T21:16:46.589Z,7.28
2023-05-05T21:19:13.115Z,6.95
2023-05-05T21:21:39.612Z,7.65
2023-05-05T21:24:08.014Z,7.03
2023-05-05T21:26:34.700Z,7.15
2023-05-05T21:29:01.506Z,7.03
2023-05-05T21:31:27.995Z,7.45
2023-05-05T21:33:54.616Z,7.05
2023-05-05T21:36:21.313Z,6.63
2023-05-05T21:38:47.888Z,6.50
2023-05-05T21:41:14.466Z,6.70
2023-05-05T21:43:41.121Z,6.72
2023-05-05T21:46:07.738Z,7.32
2023-05-05T21:48:34.306Z,6.88
2023-05-05T21:51:00.995Z,7.10
2023-05-05T21:53:27.460Z,7.32
2023-05-05T21:55:54.093Z,7.90
2023-05-05T21:58:20.571Z,7.45
2023-05-05T22:00:49.958Z,7.20
2023-05-05T22:03:17.016Z,7.82
2023-05-05T22:05:43.490Z,7.50
2023-05-05T22:08:10.054Z,7.40
2023-05-05T22:10:36.569Z,7.70
2023-05-05T22:13:03.203Z,7.47
2023-05-05T22:15:35.687Z,7.72
2023-05-05T22:18:09.629Z,8.40
2023-05-05T22:20:36.960Z,8.45
2023-05-05T22:23:03.427Z,8.30
2023-05-05T22:25:29.922Z,8.27
2023-05-05T22:27:56.517Z,8.80
2023-05-05T22:30:22.994Z,9.15
2023-05-05T22:32:49.445Z,9.32
2023-05-05T22:35:15.907Z,9.18
2023-05-05T22:37:42.448Z,9.68
2023-05-05T22:40:09.963Z,9.20
2023-05-05T22:42:36.661Z,9.15
2023-05-05T22:45:03.132Z,9.15
2023-05-05T22:47:30.855Z,9.15
2023-05-05T22:49:57.815Z,8.93
2023-05-05T22:52:25.661Z,9.60
2023-05-05T22:54:52.157Z,9.57
2023-05-05T22:57:18.624Z,9.93
2023-05-05T22:59:45.083Z,9.43
2023-05-05T23:02:11.699Z,9.93
2023-05-05T23:04:38.187Z,9.85
2023-05-05T23:07:04.725Z,9.52
2023-05-05T23:09:31.199Z,9.80
2023-05-05T23:11:57.637Z,9.68
2023-05-05T23:14:24.112Z,10.02
2023-05-05T23:16:50.818Z,9.63
2023-05-05T23:19:17.316Z,9.27
2023-05-05T23:21:52.627Z,10.13
2023-05-05T23:24:20.336Z,10.40
2023-05-05T23:26:46.796Z,9.52
2023-05-05T23:29:13.264Z,9.68
2023-05-05T23:31:39.727Z,9.48
2023-05-05T23:34:06.352Z,9.43
2023-05-05T23:36:32.824Z,10.05
2023-05-05T23:38:59.355Z,9.43
2023-05-05T23:41:26.240Z,9.40
2023-05-05T23:43:52.785Z,9.70
2023-05-05T23:46:19.339Z,9.95
2023-05-05T23:48:45.854Z,10.52
2023-05-05T23:51:12.349Z,10.30
2023-05-05T23:53:38.884Z,10.25
2023-05-05T23:56:05.645Z,10.18
2023-05-05T23:58:32.117Z,10.48
